Similk Beach, Washington
Current Conditions -  °F | °C
As of 7:56 PM on Friday 24 Oct 2014 (Local Time) from KNUW Reporting Station
Overcast Overcast  
Wind Chill: 11°   Ceiling: 12000
Heat Index: 11°   Visibility: 10mi
Dew Point:   Wind: 3mph
Humidity: 80%   Direction: 140°SE
Pressure: 29.87"   Gusts: NA
Location:  48.4652°N, 122.617°W
Report Text: KNUW 250256Z 14003KT 10SM SCT030 BKN120 OVC200 11/08 A2987 RMK AO2 SLP119 T01110078 56019 $
Loading
Personal Weather Stations






























Interactive Weather Map
Tropical Storm Tracking
New forecast layout! Learn more

10-Day Weather Forecast

Advertisements
Track Severe Weather on mobile